Time;durP1;ratioP1;P1;durP2;ratioP2;P2;SDS_P1;SDS_P2;PMS_P1;PMS_P2;Temp;Humidity;BMP_temperature;BMP_pressure;BME280_temperature;BME280_humidity;BME280_pressure;Samples;Min_cycle;Max_cycle;Signal;HPM_P1;HPM_P2
2022/07/25 00:01:26;;;;;;;6.47;5.88;;;20.60;99.90;;;;;;4985378;28;20252;-76
2022/07/25 00:03:52;;;;;;;6.15;5.65;;;20.40;99.90;;;;;;5001689;28;20174;-76
2022/07/25 00:06:18;;;;;;;6.43;5.47;;;20.40;99.90;;;;;;4985084;28;20229;-76
2022/07/25 00:08:43;;;;;;;6.03;5.45;;;20.40;99.90;;;;;;5001739;28;20194;-74
2022/07/25 00:11:09;;;;;;;6.68;5.47;;;20.30;99.90;;;;;;4985376;28;20270;-76
2022/07/25 00:13:34;;;;;;;6.63;6.00;;;20.20;99.90;;;;;;5001395;28;20204;-76
2022/07/25 00:16:00;;;;;;;6.18;5.68;;;20.10;99.90;;;;;;5001113;28;20197;-75
2022/07/25 00:18:25;;;;;;;6.10;5.60;;;20.10;99.90;;;;;;4985032;28;20214;-76
2022/07/25 00:20:51;;;;;;;6.57;5.97;;;20.10;99.90;;;;;;4984994;28;20264;-76
2022/07/25 00:23:17;;;;;;;6.63;6.03;;;20.10;99.90;;;;;;5001343;28;20228;-75
2022/07/25 00:25:42;;;;;;;6.63;5.82;;;20.00;99.90;;;;;;5017587;28;20665;-75
2022/07/25 00:28:08;;;;;;;6.22;5.63;;;19.90;99.90;;;;;;5000844;28;20190;-75
2022/07/25 00:30:33;;;;;;;6.63;5.80;;;19.90;99.90;;;;;;5001066;28;20223;-76
2022/07/25 00:32:59;;;;;;;6.47;5.85;;;19.90;99.90;;;;;;5017395;28;20174;-75
2022/07/25 00:35:25;;;;;;;6.25;5.65;;;19.80;99.90;;;;;;5017402;28;20708;-75
2022/07/25 00:37:51;;;;;;;6.30;5.80;;;19.80;99.90;;;;;;4984548;28;20186;-75
2022/07/25 00:40:16;;;;;;;6.65;6.03;;;19.70;99.90;;;;;;5017125;28;20209;-75
2022/07/25 00:42:42;;;;;;;6.35;5.82;;;19.70;99.90;;;;;;4984812;28;20175;-75
2022/07/25 00:45:08;;;;;;;6.38;5.88;;;19.70;99.90;;;;;;5000816;28;20182;-75
2022/07/25 00:47:33;;;;;;;6.38;5.82;;;19.70;99.90;;;;;;5000529;28;20281;-76
2022/07/25 00:49:59;;;;;;;6.25;5.65;;;19.70;99.90;;;;;;4983828;28;20666;-75
2022/07/25 00:52:24;;;;;;;6.40;5.80;;;19.60;99.90;;;;;;4984810;28;20182;-75
2022/07/25 00:54:50;;;;;;;6.38;5.82;;;19.60;99.90;;;;;;4984746;28;20205;-76
2022/07/25 00:57:16;;;;;;;6.75;6.13;;;19.60;99.90;;;;;;5000319;28;20268;-75
2022/07/25 00:59:41;;;;;;;6.43;5.80;;;19.80;99.90;;;;;;5016882;28;20692;-75
2022/07/25 01:02:07;;;;;;;6.88;6.28;;;19.80;99.90;;;;;;4984276;28;20269;-75
2022/07/25 01:04:33;;;;;;;6.00;5.50;;;19.80;99.90;;;;;;4984303;28;20719;-76
2022/07/25 01:06:59;;;;;;;6.13;5.47;;;19.70;99.90;;;;;;5016829;28;20201;-75
2022/07/25 01:09:25;;;;;;;6.65;6.05;;;19.50;99.90;;;;;;5000616;28;20178;-74
2022/07/25 01:11:51;;;;;;;6.63;6.03;;;19.40;99.90;;;;;;5016580;28;20202;-75
2022/07/25 01:14:17;;;;;;;5.93;5.30;;;19.40;99.90;;;;;;5016758;28;20221;-76
2022/07/25 01:16:42;;;;;;;6.20;5.60;;;19.30;99.90;;;;;;5000046;28;20198;-75
2022/07/25 01:19:08;;;;;;;6.60;5.85;;;19.40;99.90;;;;;;4984493;28;20209;-76
2022/07/25 01:21:37;;;;;;;5.95;5.45;;;19.40;99.90;;;;;;5000594;28;20181;-75
2022/07/25 01:24:03;;;;;;;7.03;6.22;;;19.20;99.90;;;;;;5000312;28;20217;-76
2022/07/25 01:26:29;;;;;;;6.30;5.70;;;18.90;99.90;;;;;;5016247;28;20568;-75
2022/07/25 01:28:55;;;;;;;6.70;6.15;;;18.90;99.90;;;;;;5000661;28;20174;-76
2022/07/25 01:31:21;;;;;;;6.93;6.22;;;18.90;99.90;;;;;;5000135;28;20186;-76
2022/07/25 01:33:47;;;;;;;6.30;5.80;;;19.00;99.90;;;;;;5000398;28;20179;-75
2022/07/25 01:36:13;;;;;;;6.68;6.07;;;19.10;99.90;;;;;;5016308;28;20195;-76
2022/07/25 01:38:39;;;;;;;6.35;5.75;;;19.10;99.90;;;;;;5000077;28;20744;-75
2022/07/25 01:41:05;;;;;;;6.35;5.75;;;19.00;99.90;;;;;;5000060;28;20174;-75
2022/07/25 01:43:30;;;;;;;6.13;5.60;;;19.10;99.90;;;;;;5000147;28;20210;-76
2022/07/25 01:45:56;;;;;;;6.88;6.20;;;19.10;99.90;;;;;;4999595;28;20201;-75
2022/07/25 01:48:22;;;;;;;6.43;5.80;;;19.20;99.90;;;;;;5016306;28;20186;-75
2022/07/25 01:50:47;;;;;;;6.85;6.25;;;19.20;99.90;;;;;;4984060;28;20595;-75
2022/07/25 01:53:13;;;;;;;6.18;5.63;;;19.10;99.90;;;;;;4999912;28;20186;-76
2022/07/25 01:55:39;;;;;;;6.57;5.97;;;19.10;99.90;;;;;;4999608;28;20184;-75
2022/07/25 01:58:04;;;;;;;6.90;6.20;;;19.00;99.90;;;;;;4999382;28;20209;-75
2022/07/25 02:00:30;;;;;;;6.80;6.10;;;18.90;99.90;;;;;;4983277;28;20308;-75
2022/07/25 02:05:40;;;;;;;6.35;5.85;;;18.90;99.90;;;;;;5004946;28;20181;-75
2022/07/25 02:08:06;;;;;;;6.30;5.70;;;19.00;99.90;;;;;;5015634;28;20174;-75
2022/07/25 02:10:32;;;;;;;7.15;6.55;;;18.80;99.90;;;;;;4983209;28;20644;-76
2022/07/25 02:12:57;;;;;;;7.32;6.30;;;18.70;99.90;;;;;;5033432;28;20245;-75
2022/07/25 02:15:23;;;;;;;6.53;5.93;;;18.60;99.90;;;;;;4999473;28;20205;-74
2022/07/25 02:17:48;;;;;;;6.70;6.10;;;18.70;99.90;;;;;;5015750;28;20321;-75
2022/07/25 02:20:14;;;;;;;6.47;5.87;;;18.80;99.90;;;;;;4983241;28;20213;-75
2022/07/25 02:22:40;;;;;;;6.95;6.25;;;18.80;99.90;;;;;;4999448;28;20174;-75
2022/07/25 02:25:06;;;;;;;6.28;5.72;;;18.70;99.90;;;;;;4999324;28;20174;-75
2022/07/25 02:27:31;;;;;;;6.87;6.27;;;18.50;99.90;;;;;;4998838;28;20213;-76
2022/07/25 02:29:57;;;;;;;7.15;6.55;;;18.60;99.90;;;;;;4999367;28;20229;-75
2022/07/25 02:32:23;;;;;;;7.20;6.60;;;18.50;99.90;;;;;;4999141;28;20567;-76
2022/07/25 02:34:48;;;;;;;7.15;6.35;;;18.50;99.90;;;;;;4999077;28;20189;-75
2022/07/25 02:37:14;;;;;;;7.03;6.43;;;18.60;99.90;;;;;;4982699;28;20198;-75
2022/07/25 02:39:39;;;;;;;6.67;6.07;;;18.60;99.90;;;;;;4999024;28;20206;-75
2022/07/25 02:42:06;;;;;;;6.97;6.27;;;18.50;99.90;;;;;;4983043;28;20189;-75
2022/07/25 02:44:31;;;;;;;6.90;6.30;;;18.50;99.90;;;;;;4999054;28;20178;-74
2022/07/25 02:46:57;;;;;;;6.50;5.97;;;18.40;99.90;;;;;;4998758;28;20297;-76
2022/07/25 02:49:22;;;;;;;7.03;6.33;;;18.40;99.90;;;;;;4999117;28;20236;-75
2022/07/25 02:51:48;;;;;;;6.97;6.27;;;18.50;99.90;;;;;;4983204;28;20197;-76
2022/07/25 02:54:13;;;;;;;7.73;6.97;;;18.60;99.90;;;;;;4983102;28;20178;-75
2022/07/25 02:56:39;;;;;;;7.03;6.43;;;18.60;99.90;;;;;;4998503;28;20213;-75
2022/07/25 02:59:05;;;;;;;7.17;6.50;;;18.60;99.90;;;;;;4983081;28;20678;-75
2022/07/25 03:01:30;;;;;;;6.80;6.20;;;18.50;99.90;;;;;;5015215;28;20175;-75
2022/07/25 03:03:56;;;;;;;7.43;6.73;;;18.40;99.90;;;;;;4998998;28;20175;-75
2022/07/25 03:06:21;;;;;;;6.77;6.17;;;18.40;99.90;;;;;;5014996;28;20202;-76
2022/07/25 03:08:47;;;;;;;6.97;6.37;;;18.30;99.90;;;;;;4998976;28;20238;-75
2022/07/25 03:11:13;;;;;;;7.40;6.57;;;18.20;99.90;;;;;;5014896;28;20210;-75
2022/07/25 03:13:38;;;;;;;7.33;6.63;;;18.10;99.90;;;;;;4998657;28;20182;-75
2022/07/25 03:16:04;;;;;;;7.27;6.57;;;18.20;99.90;;;;;;4998865;28;20299;-76
2022/07/25 03:18:30;;;;;;;7.00;6.30;;;18.30;99.90;;;;;;4982695;28;20202;-75
2022/07/25 03:20:56;;;;;;;7.93;7.23;;;18.20;99.90;;;;;;4982789;28;20183;-75
2022/07/25 03:23:23;;;;;;;6.73;6.13;;;18.20;99.90;;;;;;4998503;28;20277;-75
2022/07/25 03:25:49;;;;;;;7.17;6.47;;;18.00;99.90;;;;;;4983226;28;20256;-75
2022/07/25 03:28:14;;;;;;;7.83;7.10;;;17.80;99.90;;;;;;4982540;28;20182;-74
2022/07/25 03:30:40;;;;;;;7.67;6.97;;;17.70;99.90;;;;;;4998861;28;20170;-75
2022/07/25 03:33:06;;;;;;;7.10;6.50;;;17.60;99.90;;;;;;4982594;28;20237;-75
2022/07/25 03:35:31;;;;;;;7.07;6.37;;;17.70;99.90;;;;;;4982327;28;20180;-75
2022/07/25 03:37:57;;;;;;;7.13;6.47;;;17.70;99.90;;;;;;4999229;28;20227;-76
2022/07/25 03:40:22;;;;;;;7.33;6.50;;;17.60;99.90;;;;;;4982478;28;20201;-75
2022/07/25 03:42:48;;;;;;;9.87;7.00;;;17.60;99.90;;;;;;4998924;28;20179;-75
2022/07/25 03:45:14;;;;;;;8.03;6.87;;;17.70;99.90;;;;;;4982965;28;20183;-75
2022/07/25 03:47:39;;;;;;;7.10;6.40;;;17.70;99.90;;;;;;4998511;28;20190;-74
2022/07/25 03:50:05;;;;;;;6.93;6.27;;;17.70;99.90;;;;;;4999077;28;20179;-76
2022/07/25 03:52:31;;;;;;;6.80;6.20;;;17.70;99.90;;;;;;4982548;28;20190;-75
2022/07/25 03:54:56;;;;;;;7.37;6.60;;;17.70;99.90;;;;;;5014945;28;20171;-75
2022/07/25 03:57:22;;;;;;;6.93;6.33;;;17.50;99.90;;;;;;5014914;28;20210;-75
2022/07/25 03:59:47;;;;;;;7.30;6.60;;;17.50;99.90;;;;;;4998376;28;20209;-75
2022/07/25 04:02:13;;;;;;;8.43;6.63;;;17.60;99.90;;;;;;4982519;28;20187;-76
2022/07/25 04:04:59;;;;;;;7.00;6.40;;;17.80;99.90;;;;;;4982767;28;20178;-76
2022/07/25 04:07:25;;;;;;;7.50;6.80;;;17.90;99.90;;;;;;4998919;28;20194;-76
2022/07/25 04:09:51;;;;;;;7.50;6.80;;;18.00;99.90;;;;;;5015527;28;20185;-75
2022/07/25 04:12:16;;;;;;;7.30;6.70;;;17.90;99.90;;;;;;4998896;28;20243;-76
2022/07/25 04:14:42;;;;;;;7.93;7.23;;;17.90;99.90;;;;;;4999147;28;20214;-76
2022/07/25 04:17:08;;;;;;;8.17;6.77;;;17.90;99.90;;;;;;5032663;28;20622;-75
2022/07/25 04:19:33;;;;;;;8.50;7.70;;;17.90;99.90;;;;;;4982955;28;20553;-75
2022/07/25 04:21:59;;;;;;;7.57;6.87;;;17.90;99.90;;;;;;4998848;28;20194;-77
2022/07/25 04:24:25;;;;;;;7.77;7.00;;;17.70;99.90;;;;;;4983283;28;20174;-77
2022/07/25 04:26:50;;;;;;;8.03;6.80;;;17.50;99.90;;;;;;5001497;28;20221;-77
2022/07/25 04:29:16;;;;;;;7.40;6.70;;;17.40;99.90;;;;;;5001546;28;20178;-76
2022/07/25 04:31:41;;;;;;;7.63;6.93;;;17.30;99.90;;;;;;4985571;28;20281;-76
2022/07/25 04:34:07;;;;;;;7.80;7.00;;;17.40;99.90;;;;;;4985055;28;20649;-76
2022/07/25 04:36:32;;;;;;;8.60;6.23;;;17.40;99.90;;;;;;5001372;28;20293;-76
2022/07/25 04:38:58;;;;;;;7.30;6.60;;;17.40;99.90;;;;;;4985441;28;20251;-76
2022/07/25 04:41:24;;;;;;;7.87;6.60;;;17.40;99.90;;;;;;4984885;28;20265;-76
2022/07/25 04:43:49;;;;;;;7.87;6.80;;;17.40;99.90;;;;;;4985106;28;20187;-76
2022/07/25 04:46:19;;;;;;;6.97;6.37;;;17.50;99.90;;;;;;4985208;28;20289;-76
2022/07/25 04:48:45;;;;;;;7.57;6.73;;;17.60;99.90;;;;;;5001334;28;20190;-76
2022/07/25 04:51:10;;;;;;;8.03;7.27;;;17.60;99.90;;;;;;5017312;28;20197;-76
2022/07/25 04:53:36;;;;;;;7.60;6.90;;;17.60;99.90;;;;;;4984632;28;20185;-76
2022/07/25 04:56:02;;;;;;;7.90;7.10;;;17.80;99.90;;;;;;5001593;28;20687;-76
2022/07/25 04:58:27;;;;;;;8.43;7.57;;;18.00;99.90;;;;;;4984844;28;20198;-76
2022/07/25 05:00:53;;;;;;;7.60;6.90;;;18.00;99.90;;;;;;5017333;28;20174;-75
2022/07/25 05:03:18;;;;;;;8.13;7.33;;;18.10;99.90;;;;;;4984735;28;20176;-76
2022/07/25 09:48:56;;;;;;;6.15;5.68;;;31.50;72.50;;;;;;5010785;28;20207;-75
2022/07/25 09:51:23;;;;;;;6.57;5.97;;;31.60;74.20;;;;;;4996229;28;20638;-75
2022/07/25 09:53:49;;;;;;;6.53;5.90;;;31.90;72.40;;;;;;4980390;28;20230;-74
2022/07/25 09:56:15;;;;;;;6.10;5.60;;;32.00;71.20;;;;;;4960317;28;20192;-75
2022/07/25 09:58:40;;;;;;;6.70;5.97;;;32.00;70.00;;;;;;4960502;28;20628;-75
2022/07/25 10:01:07;;;;;;;6.30;5.80;;;32.10;70.60;;;;;;5010350;23;20224;-74
2022/07/25 10:03:52;;;;;;;6.55;5.95;;;32.20;68.60;;;;;;4974540;28;20177;-75
2022/07/25 10:06:26;;;;;;;6.57;5.97;;;32.30;68.30;;;;;;4973032;28;20180;-74
2022/07/25 10:08:53;;;;;;;6.63;6.00;;;32.30;68.40;;;;;;4973314;28;20172;-74
2022/07/25 10:11:24;;;;;;;6.57;5.97;;;32.30;66.90;;;;;;4956972;28;20255;-75
2022/07/25 10:13:50;;;;;;;6.43;5.93;;;32.20;66.90;;;;;;4941326;28;20180;-75
2022/07/25 10:16:19;;;;;;;7.03;6.32;;;32.40;67.20;;;;;;4956964;28;20180;-75
2022/07/25 10:18:53;;;;;;;7.15;6.50;;;32.70;65.70;;;;;;4956847;28;20319;-75
2022/07/25 10:21:20;;;;;;;6.75;6.15;;;32.80;65.70;;;;;;4972919;28;20192;-74
2022/07/25 10:23:57;;;;;;;6.40;5.90;;;32.90;64.00;;;;;;4973133;28;20176;-75
2022/07/25 10:26:24;;;;;;;6.38;5.78;;;32.80;64.50;;;;;;4972873;28;20215;-75
2022/07/25 10:28:52;;;;;;;6.55;6.03;;;32.90;64.10;;;;;;4941060;28;20211;-75
2022/07/25 10:31:23;;;;;;;6.88;6.28;;;33.00;62.50;;;;;;4956719;28;20262;-75
2022/07/25 10:33:57;;;;;;;6.70;6.20;;;33.20;62.20;;;;;;4957131;28;20646;-75
2022/07/25 10:36:24;;;;;;;6.40;5.90;;;33.50;60.60;;;;;;4956715;28;20203;-75
2022/07/25 10:38:51;;;;;;;6.40;5.90;;;33.60;60.90;;;;;;4957589;28;20200;-74
2022/07/25 10:41:22;;;;;;;6.97;6.43;;;33.60;59.20;;;;;;4957000;28;20203;-74
2022/07/25 10:43:50;;;;;;;7.15;6.45;;;33.50;59.60;;;;;;4958064;28;20153;-74
2022/07/25 10:46:22;;;;;;;6.63;6.03;;;33.30;59.10;;;;;;4973164;28;20184;-74
2022/07/25 10:49:05;;;;;;;7.18;6.38;;;33.00;60.00;;;;;;4973027;28;20192;-74
2022/07/25 10:51:36;;;;;;;7.00;6.30;;;32.90;59.80;;;;;;4973038;28;20258;-74
2022/07/25 10:54:16;;;;;;;6.88;6.18;;;33.40;61.50;;;;;;4974135;28;20191;-74
2022/07/25 10:56:58;;;;;;;6.65;6.05;;;33.70;59.00;;;;;;4956959;28;20203;-74
2022/07/25 10:59:37;;;;;;;6.47;5.97;;;33.90;58.10;;;;;;4973030;28;20274;-74
2022/07/25 11:02:06;;;;;;;5.97;5.50;;;33.90;57.80;;;;;;4942122;28;20215;-74
2022/07/25 11:04:32;;;;;;;6.13;5.55;;;33.90;54.70;;;;;;4972801;28;20180;-74
2022/07/25 11:07:11;;;;;;;6.57;5.30;;;33.50;53.40;;;;;;4973765;28;20179;-74
2022/07/25 11:09:37;;;;;;;6.30;5.80;;;33.30;53.60;;;;;;4973013;28;20168;-74
2022/07/25 11:12:03;;;;;;;5.95;5.40;;;33.60;52.30;;;;;;4940519;28;20204;-74
2022/07/25 11:14:33;;;;;;;5.57;5.18;;;33.90;51.70;;;;;;4941006;28;20212;-75
2022/07/25 11:17:18;;;;;;;6.22;5.60;;;33.90;50.00;;;;;;4956508;28;20187;-74
2022/07/25 11:19:54;;;;;;;5.68;5.20;;;34.10;49.80;;;;;;4956725;28;20633;-74
2022/07/25 11:22:19;;;;;;;5.93;5.30;;;33.90;48.80;;;;;;4973754;28;20194;-74
2022/07/25 11:24:47;;;;;;;6.20;5.60;;;33.80;48.90;;;;;;4956827;28;20248;-73
2022/07/25 11:27:24;;;;;;;5.88;5.38;;;33.60;48.60;;;;;;4972341;28;20177;-74
2022/07/25 11:29:49;;;;;;;5.60;5.18;;;33.60;47.40;;;;;;4956612;28;20183;-74
2022/07/25 11:32:15;;;;;;;5.32;4.90;;;33.80;47.00;;;;;;4956681;28;20196;-74
2022/07/25 11:34:53;;;;;;;5.35;4.95;;;33.90;46.90;;;;;;4944128;28;20176;-74
2022/07/25 11:37:19;;;;;;;5.65;5.15;;;33.90;44.60;;;;;;4960330;28;20223;-74
2022/07/25 11:39:46;;;;;;;5.30;4.90;;;33.80;43.10;;;;;;4976268;28;20208;-74
2022/07/25 11:42:15;;;;;;;5.03;4.63;;;33.70;43.60;;;;;;4976192;28;20196;-74
2022/07/25 11:44:43;;;;;;;5.03;4.47;;;33.90;44.20;;;;;;4976506;28;20179;-74
2022/07/25 11:47:27;;;;;;;4.82;4.43;;;33.90;45.10;;;;;;4959990;28;20176;-74
2022/07/25 11:49:56;;;;;;;5.05;4.30;;;33.80;44.70;;;;;;4976505;28;20232;-74
2022/07/25 11:52:24;;;;;;;5.95;4.57;;;33.80;45.00;;;;;;4960626;28;20545;-75
2022/07/25 11:55:05;;;;;;;5.45;4.90;;;34.10;45.70;;;;;;4944558;28;20191;-75
2022/07/25 11:57:36;;;;;;;5.00;4.60;;;34.40;45.30;;;;;;4929429;28;20167;-75
2022/07/25 12:00:19;;;;;;;7.93;4.88;;;34.60;43.90;;;;;;4977164;28;20590;-75
2022/07/25 12:02:46;;;;;;;4.90;4.50;;;34.70;42.50;;;;;;4976007;28;20246;-75
2022/07/25 12:05:15;;;;;;;5.80;5.00;;;34.70;41.50;;;;;;4928423;28;20658;-75
2022/07/25 12:07:45;;;;;;;5.18;4.70;;;34.40;41.90;;;;;;4943837;28;20215;-76
2022/07/25 12:10:32;;;;;;;5.70;5.18;;;34.30;41.90;;;;;;4977026;28;20180;-75
2022/07/25 12:13:00;;;;;;;4.97;4.47;;;34.20;42.70;;;;;;4976080;28;20172;-76
2022/07/25 12:15:28;;;;;;;5.22;4.72;;;34.20;43.40;;;;;;4975661;28;20195;-75
2022/07/25 12:17:55;;;;;;;5.60;5.07;;;33.90;43.30;;;;;;4976659;28;20260;-75
2022/07/25 12:20:30;;;;;;;6.05;5.45;;;33.80;44.10;;;;;;4975590;28;20223;-75
2022/07/25 12:23:00;;;;;;;5.60;5.10;;;34.00;44.30;;;;;;4975926;28;20539;-75
2022/07/25 12:25:27;;;;;;;5.78;5.28;;;34.30;43.50;;;;;;4975697;28;20552;-75
2022/07/25 12:27:53;;;;;;;5.47;4.97;;;34.30;42.80;;;;;;4975606;28;20203;-75
2022/07/25 12:30:18;;;;;;;6.05;5.50;;;34.40;43.20;;;;;;4943667;28;20188;-75
2022/07/25 12:32:44;;;;;;;5.53;5.10;;;34.50;43.20;;;;;;4927421;28;20208;-75
2022/07/25 12:35:12;;;;;;;4.80;4.40;;;34.50;43.10;;;;;;4975331;28;20212;-75
2022/07/25 12:37:39;;;;;;;7.03;5.07;;;34.60;43.00;;;;;;4975146;28;20251;-75
2022/07/25 12:40:05;;;;;;;5.63;5.13;;;34.50;42.80;;;;;;4975415;28;20569;-75
2022/07/25 12:42:31;;;;;;;5.38;4.88;;;34.00;42.50;;;;;;4943154;28;20224;-75
2022/07/25 12:44:56;;;;;;;5.47;4.97;;;33.90;43.30;;;;;;4958369;28;20204;-75
2022/07/25 12:47:23;;;;;;;5.80;5.30;;;33.80;44.30;;;;;;4943129;28;20192;-75
2022/07/25 12:49:49;;;;;;;5.68;5.18;;;33.90;44.50;;;;;;4942723;28;20539;-75
2022/07/25 12:52:15;;;;;;;5.40;5.00;;;33.70;45.00;;;;;;4975663;28;20255;-76
2022/07/25 12:54:41;;;;;;;5.72;5.10;;;33.60;45.20;;;;;;4942427;28;20185;-75
2022/07/25 12:57:08;;;;;;;6.70;5.28;;;33.70;45.20;;;;;;4974302;28;20172;-75
2022/07/25 12:59:34;;;;;;;5.68;5.15;;;34.00;45.90;;;;;;4958571;28;20200;-75
2022/07/25 13:01:59;;;;;;;5.70;5.18;;;34.50;45.60;;;;;;4974256;28;20212;-75
2022/07/25 13:04:25;;;;;;;6.00;5.40;;;34.80;44.30;;;;;;4974382;28;20192;-75
2022/07/25 13:06:53;;;;;;;5.43;5.03;;;34.80;44.30;;;;;;4926140;28;20622;-75
2022/07/25 13:09:19;;;;;;;5.72;5.22;;;34.40;44.60;;;;;;4958445;28;20553;-75
2022/07/25 13:11:44;;;;;;;6.50;6.00;;;33.90;45.00;;;;;;4958048;28;20196;-75
2022/07/25 13:14:10;;;;;;;5.75;5.15;;;33.70;45.40;;;;;;4926391;28;20184;-75
2022/07/25 13:16:36;;;;;;;5.57;5.10;;;33.60;46.20;;;;;;4957983;28;20256;-75
2022/07/25 13:19:03;;;;;;;4.70;4.30;;;33.80;45.90;;;;;;4942354;28;20216;-75
2022/07/25 13:21:29;;;;;;;4.97;4.57;;;33.70;43.90;;;;;;4973858;28;20207;-75
2022/07/25 13:23:56;;;;;;;4.65;4.28;;;33.60;43.50;;;;;;4958149;28;20176;-75
2022/07/25 13:26:22;;;;;;;4.72;4.13;;;33.50;42.90;;;;;;4925863;28;20176;-75
2022/07/25 13:28:47;;;;;;;5.30;4.50;;;33.30;42.00;;;;;;4957919;28;20181;-75
2022/07/25 13:31:13;;;;;;;5.55;4.22;;;33.30;42.80;;;;;;4957697;28;20726;-75
2022/07/25 13:33:38;;;;;;;5.07;4.60;;;33.50;42.60;;;;;;4941854;28;20172;-75
2022/07/25 13:36:05;;;;;;;5.15;4.65;;;33.50;43.30;;;;;;4925863;28;20176;-75
2022/07/25 13:38:33;;;;;;;5.10;4.63;;;33.70;42.90;;;;;;4957453;28;20176;-75
2022/07/25 13:41:01;;;;;;;5.32;4.78;;;34.20;44.10;;;;;;4957969;28;20679;-75
2022/07/25 13:43:27;;;;;;;5.93;5.07;;;34.70;42.80;;;;;;4973752;28;20183;-75
2022/07/25 13:45:52;;;;;;;5.90;5.22;;;34.80;42.70;;;;;;4974029;28;20172;-77
2022/07/25 13:48:18;;;;;;;5.93;5.18;;;34.70;42.70;;;;;;4957828;28;20184;-77
2022/07/25 13:50:43;;;;;;;5.38;4.88;;;34.70;42.40;;;;;;4973937;28;20203;-75
2022/07/25 13:53:09;;;;;;;5.20;4.70;;;34.90;42.50;;;;;;4942063;28;20231;-75
2022/07/25 13:55:35;;;;;;;5.35;4.95;;;34.70;42.00;;;;;;4941730;28;20181;-75
2022/07/25 13:58:00;;;;;;;5.60;4.75;;;34.50;41.40;;;;;;4973965;28;20180;-75
2022/07/25 14:00:26;;;;;;;6.35;5.75;;;34.10;42.50;;;;;;4974999;28;20201;-77
2022/07/25 14:02:52;;;;;;;7.50;5.45;;;33.60;44.30;;;;;;4957869;28;20180;-77
2022/07/25 14:05:17;;;;;;;6.05;5.40;;;33.10;45.20;;;;;;4957957;28;20177;-77
2022/07/25 14:07:43;;;;;;;9.02;6.03;;;32.80;48.60;;;;;;4925598;28;20177;-77
2022/07/25 14:10:09;;;;;;;7.55;5.88;;;31.80;54.00;;;;;;4957849;28;20598;-77
2022/07/25 14:12:35;;;;;;;7.28;5.90;;;31.30;56.50;;;;;;4925781;28;20200;-77
2022/07/25 14:15:01;;;;;;;6.57;5.93;;;31.20;57.70;;;;;;4973501;28;20698;-77
2022/07/25 14:17:27;;;;;;;6.65;6.00;;;31.20;56.90;;;;;;4957568;28;20187;-77
2022/07/25 14:19:53;;;;;;;6.90;5.90;;;31.20;56.90;;;;;;4973360;28;20204;-77
2022/07/25 14:22:18;;;;;;;7.25;5.50;;;31.10;57.00;;;;;;4957635;28;20228;-77
2022/07/25 14:24:44;;;;;;;8.13;5.60;;;31.10;59.30;;;;;;4925662;28;20177;-77
2022/07/25 14:27:10;;;;;;;7.13;4.93;;;30.90;61.20;;;;;;4925197;28;20275;-75
2022/07/25 14:29:36;;;;;;;6.43;4.80;;;30.80;64.10;;;;;;4973252;28;20176;-75
2022/07/25 14:32:04;;;;;;;6.85;5.40;;;30.70;65.00;;;;;;4941473;28;20287;-75
2022/07/25 14:34:29;;;;;;;5.40;4.90;;;30.70;66.80;;;;;;4957183;28;20184;-75
2022/07/25 14:36:55;;;;;;;7.90;5.03;;;30.60;73.00;;;;;;4957238;28;20190;-75
2022/07/25 14:39:21;;;;;;;6.90;5.32;;;30.40;75.50;;;;;;4973097;28;20208;-75
2022/07/25 14:41:46;;;;;;;6.40;5.32;;;30.30;78.20;;;;;;4941003;28;20196;-75
2022/07/25 14:44:12;;;;;;;6.32;5.05;;;30.20;83.10;;;;;;4974251;28;20164;-75
2022/07/25 14:46:40;;;;;;;6.05;5.07;;;30.10;84.00;;;;;;4956635;28;20199;-75
2022/07/25 14:49:05;;;;;;;6.18;5.28;;;30.00;86.00;;;;;;4941420;28;20192;-75
2022/07/25 14:51:31;;;;;;;7.38;5.60;;;29.90;91.00;;;;;;4957149;28;20207;-75
2022/07/25 14:53:57;;;;;;;7.78;5.85;;;29.70;99.30;;;;;;4956924;28;20246;-75
2022/07/25 14:56:23;;;;;;;8.63;6.05;;;29.70;99.90;;;;;;4956769;28;20207;-75
2022/07/25 14:58:49;;;;;;;8.75;6.22;;;29.70;99.90;;;;;;4973097;28;20187;-75
2022/07/25 15:01:17;;;;;;;8.20;6.18;;;29.70;99.90;;;;;;4956571;28;20266;-75
2022/07/25 15:03:43;;;;;;;11.10;6.32;;;29.80;99.90;;;;;;4957276;28;20592;-75
2022/07/25 15:06:09;;;;;;;6.97;6.28;;;29.80;99.90;;;;;;4941041;28;20643;-75
2022/07/25 15:08:37;;;;;;;7.80;6.85;;;29.80;99.90;;;;;;4972356;28;20269;-75
2022/07/25 15:11:02;;;;;;;7.85;7.05;;;29.70;99.90;;;;;;4973941;28;20223;-75
2022/07/25 15:13:28;;;;;;;7.47;6.72;;;29.70;99.90;;;;;;4972575;28;20224;-75
2022/07/25 15:15:54;;;;;;;7.22;6.55;;;29.60;99.90;;;;;;4956833;28;20184;-75
2022/07/25 15:18:20;;;;;;;7.78;6.95;;;29.60;99.90;;;;;;4924873;28;20674;-75
2022/07/25 15:20:47;;;;;;;7.70;6.90;;;29.50;99.90;;;;;;4956386;28;20215;-75
2022/07/25 15:23:13;;;;;;;7.85;7.05;;;29.60;99.90;;;;;;4972588;28;20183;-75
2022/07/25 15:25:39;;;;;;;7.70;6.60;;;29.50;99.90;;;;;;4956587;28;20181;-75
2022/07/25 15:28:05;;;;;;;7.07;6.47;;;29.50;99.90;;;;;;4940733;28;20267;-75
2022/07/25 15:30:30;;;;;;;8.07;6.95;;;29.30;99.90;;;;;;4956747;28;20639;-75
2022/07/25 15:32:56;;;;;;;7.20;6.50;;;29.40;99.90;;;;;;4973695;28;20182;-75
2022/07/25 15:35:22;;;;;;;8.50;6.70;;;29.50;99.90;;;;;;4972854;28;20275;-75
2022/07/25 15:37:47;;;;;;;7.82;6.80;;;29.60;99.90;;;;;;4972689;28;20176;-75
2022/07/25 15:40:13;;;;;;;7.03;6.35;;;29.70;99.90;;;;;;4972665;28;20203;-75
2022/07/25 15:42:39;;;;;;;6.57;5.97;;;29.80;99.90;;;;;;4940230;28;20577;-75
2022/07/25 15:45:05;;;;;;;7.50;6.80;;;29.90;99.90;;;;;;4940609;28;20176;-75
2022/07/25 15:47:32;;;;;;;7.28;6.60;;;30.10;99.90;;;;;;4924599;28;20173;-75
2022/07/25 15:49:57;;;;;;;6.97;6.28;;;30.40;99.90;;;;;;4973474;28;20173;-75
2022/07/25 15:52:23;;;;;;;7.05;6.45;;;30.70;98.90;;;;;;4970618;28;20225;-75
2022/07/25 15:54:50;;;;;;;6.63;5.80;;;30.60;97.60;;;;;;4931941;28;20204;-75
2022/07/25 15:57:16;;;;;;;7.15;6.15;;;30.90;96.50;;;;;;4922938;29;20192;-75
2022/07/25 15:59:42;;;;;;;8.68;6.57;;;31.30;95.60;;;;;;4921434;29;20201;-75
2022/07/25 16:02:11;;;;;;;6.63;6.00;;;31.60;96.20;;;;;;4966965;23;20224;-76
2022/07/25 16:04:38;;;;;;;7.15;6.45;;;31.60;94.10;;;;;;4953034;29;20173;-76
2022/07/25 16:07:12;;;;;;;8.40;6.15;;;31.40;93.00;;;;;;4968874;28;20180;-76
2022/07/25 16:09:38;;;;;;;7.63;6.45;;;31.10;94.20;;;;;;4952952;29;20168;-76
2022/07/25 16:12:04;;;;;;;6.82;6.22;;;30.90;95.70;;;;;;4949591;28;20202;-77
2022/07/25 16:14:29;;;;;;;7.07;6.32;;;30.70;96.10;;;;;;4949572;28;20280;-76
2022/07/25 16:16:55;;;;;;;6.97;6.28;;;30.60;95.90;;;;;;4949888;28;20261;-76
2022/07/25 16:19:21;;;;;;;7.03;6.30;;;30.60;96.00;;;;;;4951134;28;20259;-76
2022/07/25 16:21:47;;;;;;;7.25;6.03;;;30.60;95.70;;;;;;4937425;29;20296;-76
2022/07/25 16:24:13;;;;;;;9.27;6.32;;;30.70;95.90;;;;;;4937218;29;20174;-76
2022/07/25 16:26:38;;;;;;;6.63;6.03;;;31.20;95.00;;;;;;4936915;29;20616;-76
2022/07/25 16:29:04;;;;;;;6.65;6.05;;;31.10;93.70;;;;;;4937088;29;20178;-76
2022/07/25 16:31:30;;;;;;;7.85;6.40;;;31.20;94.50;;;;;;4953048;28;20202;-76
2022/07/25 16:33:55;;;;;;;7.10;6.50;;;31.50;94.20;;;;;;4952972;29;20249;-76
2022/07/25 16:36:21;;;;;;;7.93;6.30;;;31.70;91.90;;;;;;4936792;29;20233;-76
2022/07/25 16:38:48;;;;;;;6.32;5.72;;;31.60;92.40;;;;;;4953106;28;20178;-76
2022/07/25 16:41:14;;;;;;;6.90;5.95;;;31.20;92.50;;;;;;4952793;28;20253;-76
2022/07/25 16:43:39;;;;;;;6.75;6.13;;;31.00;94.50;;;;;;4937071;29;20273;-76
2022/07/25 16:46:06;;;;;;;7.18;6.43;;;30.80;95.00;;;;;;4952697;28;20277;-76
2022/07/25 16:48:32;;;;;;;6.82;5.70;;;30.70;95.40;;;;;;4952875;29;20178;-76
2022/07/25 16:50:58;;;;;;;6.88;6.18;;;30.60;96.70;;;;;;4936692;29;20178;-76
2022/07/25 16:53:24;;;;;;;7.15;6.25;;;30.40;96.40;;;;;;4936891;29;20182;-76
2022/07/25 16:55:49;;;;;;;6.72;6.07;;;30.20;97.30;;;;;;4952933;28;20272;-76
2022/07/25 16:58:15;;;;;;;6.57;5.97;;;30.00;98.60;;;;;;4936662;29;20178;-76
2022/07/25 17:00:40;;;;;;;7.25;5.70;;;30.00;99.00;;;;;;4936754;29;20233;-76
2022/07/25 17:03:06;;;;;;;7.20;6.13;;;29.90;99.10;;;;;;4936574;29;20801;-76
2022/07/25 17:05:32;;;;;;;6.65;6.03;;;29.80;98.60;;;;;;4952383;29;20599;-76
2022/07/25 17:07:57;;;;;;;6.15;5.60;;;29.70;99.80;;;;;;4952504;28;20645;-77
2022/07/25 17:10:23;;;;;;;6.97;6.38;;;29.60;99.90;;;;;;4936662;29;20178;-75
2022/07/25 17:12:49;;;;;;;8.57;6.72;;;29.50;99.90;;;;;;4936219;29;20212;-75
2022/07/25 17:15:14;;;;;;;14.30;6.32;;;29.40;99.90;;;;;;4936492;29;20627;-75
2022/07/25 17:17:40;;;;;;;7.88;6.13;;;29.40;99.90;;;;;;4936045;29;20177;-74
2022/07/25 17:20:07;;;;;;;6.28;5.68;;;29.20;99.90;;;;;;4936036;29;20202;-76
2022/07/25 17:22:32;;;;;;;8.05;6.28;;;29.10;99.90;;;;;;4936046;29;20573;-77
2022/07/25 17:24:58;;;;;;;7.00;6.03;;;29.10;99.90;;;;;;4952279;28;20264;-76
2022/07/25 17:27:24;;;;;;;7.22;6.50;;;29.00;99.90;;;;;;4952210;28;20189;-76
2022/07/25 17:29:49;;;;;;;6.57;5.97;;;28.80;99.90;;;;;;4952182;28;20185;-75
2022/07/25 17:32:15;;;;;;;6.65;5.57;;;28.80;99.90;;;;;;4951171;28;20583;-75